createdAt,value
2022-11-10T00:00:20.524Z,1014.19
2022-11-10T00:01:20.245Z,1014.19
2022-11-10T00:02:20.279Z,1014.17
2022-11-10T00:03:20.686Z,1014.15
2022-11-10T00:04:20.420Z,1014.18
2022-11-10T00:05:20.366Z,1014.19
2022-11-10T00:06:20.395Z,1014.22
2022-11-10T00:07:20.731Z,1014.22
2022-11-10T00:08:20.494Z,1014.21
2022-11-10T00:09:20.491Z,1014.21
2022-11-10T00:10:20.519Z,1014.23
2022-11-10T00:11:20.546Z,1014.20
2022-11-10T00:13:20.838Z,1014.30
2022-11-10T00:14:20.938Z,1014.27
2022-11-10T00:15:20.666Z,1014.33
2022-11-10T00:16:20.693Z,1014.31
2022-11-10T00:17:20.732Z,1014.34
2022-11-10T00:19:20.791Z,1014.36
2022-11-10T00:20:20.818Z,1014.35
2022-11-10T00:21:21.143Z,1014.36
2022-11-10T00:23:21.396Z,1014.34
2022-11-10T00:24:20.936Z,1014.37
2022-11-10T00:25:20.973Z,1014.41
2022-11-10T00:26:20.993Z,1014.41
2022-11-10T00:27:21.126Z,1014.43
2022-11-10T00:28:21.303Z,1014.41
2022-11-10T00:29:21.108Z,1014.39
2022-11-10T00:30:21.127Z,1014.40
2022-11-10T00:31:21.151Z,1014.38
2022-11-10T00:32:21.181Z,1014.41
2022-11-10T00:33:21.475Z,1014.35
2022-11-10T00:34:21.295Z,1014.37
2022-11-10T00:35:21.511Z,1014.38
2022-11-10T00:36:21.452Z,1014.38
2022-11-10T00:37:21.322Z,1014.39
2022-11-10T00:38:21.351Z,1014.39
2022-11-10T00:39:21.384Z,1014.39
2022-11-10T00:40:21.415Z,1014.38
2022-11-10T00:41:21.444Z,1014.35
2022-11-10T00:42:21.774Z,1014.41
2022-11-10T00:43:26.313Z,1014.43
2022-11-10T00:44:21.548Z,1014.44
2022-11-10T00:45:21.584Z,1014.41
2022-11-10T00:46:21.597Z,1014.46
2022-11-10T00:47:21.634Z,1014.49
2022-11-10T00:48:21.652Z,1014.48
2022-11-10T00:49:21.986Z,1014.50
2022-11-10T00:50:21.717Z,1014.49
2022-11-10T00:51:21.749Z,1014.55
2022-11-10T00:52:21.778Z,1014.59
2022-11-10T00:53:22.142Z,1014.61
2022-11-10T00:54:21.835Z,1014.64
2022-11-10T00:56:22.195Z,1014.62
2022-11-10T00:57:21.928Z,1014.64
2022-11-10T00:58:24.511Z,1014.63
2022-11-10T00:59:21.984Z,1014.67
2022-11-10T01:01:22.114Z,1014.69
2022-11-10T01:02:22.074Z,1014.71
2022-11-10T01:03:22.751Z,1014.75
2022-11-10T01:04:22.131Z,1014.77
2022-11-10T01:05:22.164Z,1014.81
2022-11-10T01:06:22.190Z,1014.79
2022-11-10T01:07:22.223Z,1014.82
2022-11-10T01:08:22.252Z,1014.80
2022-11-10T01:09:22.532Z,1014.75
2022-11-10T01:10:22.411Z,1014.74
2022-11-10T01:11:22.341Z,1014.74
2022-11-10T01:12:22.475Z,1014.79
2022-11-10T01:13:22.749Z,1014.78
2022-11-10T01:14:22.429Z,1014.81
2022-11-10T01:15:27.274Z,1014.75
2022-11-10T01:16:22.492Z,1014.77
2022-11-10T01:17:22.541Z,1014.77
2022-11-10T01:18:22.551Z,1014.84
2022-11-10T01:19:22.583Z,1014.85
2022-11-10T01:20:22.609Z,1014.86
2022-11-10T01:21:22.891Z,1014.84
2022-11-10T01:22:22.669Z,1014.85
2022-11-10T01:23:23.072Z,1014.90
2022-11-10T01:24:22.730Z,1014.89
2022-11-10T01:25:22.764Z,1014.85
2022-11-10T01:26:22.786Z,1014.85
2022-11-10T01:27:22.817Z,1014.89
2022-11-10T01:28:23.151Z,1014.90
2022-11-10T01:29:22.882Z,1014.94
2022-11-10T01:30:22.911Z,1014.90
2022-11-10T01:31:22.939Z,1014.92
2022-11-10T01:32:22.970Z,1014.95
2022-11-10T01:33:23.415Z,1014.96
2022-11-10T01:34:23.036Z,1014.99
2022-11-10T01:35:23.310Z,1015.03
2022-11-10T01:36:23.093Z,1015.00
2022-11-10T01:37:23.121Z,1014.99
2022-11-10T01:38:23.148Z,1015.00
2022-11-10T01:39:23.178Z,1015.04
2022-11-10T01:40:23.262Z,1015.03
2022-11-10T01:41:23.289Z,1015.02
2022-11-10T01:42:23.566Z,1015.05
2022-11-10T01:43:23.709Z,1015.08
2022-11-10T01:44:23.325Z,1015.05
2022-11-10T01:45:23.368Z,1015.07
2022-11-10T01:46:23.392Z,1015.03
2022-11-10T01:47:23.417Z,1015.05
2022-11-10T01:48:23.453Z,1015.07
2022-11-10T01:49:23.794Z,1015.06
2022-11-10T01:50:23.509Z,1015.02
2022-11-10T01:51:23.534Z,1015.05
2022-11-10T01:52:23.576Z,1015.08
2022-11-10T01:53:23.851Z,1015.05
2022-11-10T01:54:23.627Z,1015.06
2022-11-10T01:55:23.657Z,1015.06
2022-11-10T01:56:23.936Z,1015.06
2022-11-10T01:57:23.719Z,1015.09
2022-11-10T01:58:23.748Z,1015.09
2022-11-10T01:59:23.771Z,1015.13
2022-11-10T02:00:23.907Z,1015.11
2022-11-10T02:01:23.835Z,1015.10
2022-11-10T02:02:23.863Z,1015.10
2022-11-10T02:03:24.635Z,1015.06
2022-11-10T02:04:23.931Z,1015.14
2022-11-10T02:05:23.979Z,1015.15
2022-11-10T02:06:24.284Z,1015.17
2022-11-10T02:07:24.012Z,1015.24
2022-11-10T02:08:24.145Z,1015.27
2022-11-10T02:09:24.078Z,1015.28
2022-11-10T02:10:24.410Z,1015.28
2022-11-10T02:11:24.132Z,1015.30
2022-11-10T02:12:24.165Z,1015.35
2022-11-10T02:13:24.462Z,1015.37
2022-11-10T02:14:24.224Z,1015.34
2022-11-10T02:15:24.253Z,1015.36
2022-11-10T02:16:24.283Z,1015.39
2022-11-10T02:17:24.561Z,1015.36
2022-11-10T02:18:24.342Z,1015.37
2022-11-10T02:19:24.379Z,1015.36
2022-11-10T02:20:24.400Z,1015.36
2022-11-10T02:21:24.450Z,1015.39
2022-11-10T02:22:24.464Z,1015.39
2022-11-10T02:23:24.589Z,1015.42
2022-11-10T02:24:24.823Z,1015.39
2022-11-10T02:25:24.548Z,1015.36
2022-11-10T02:26:24.581Z,1015.34
2022-11-10T02:27:24.608Z,1015.31
2022-11-10T02:28:24.651Z,1015.37
2022-11-10T02:29:24.669Z,1015.36
2022-11-10T02:30:27.737Z,1015.40
2022-11-10T02:31:24.982Z,1015.38
2022-11-10T02:32:24.762Z,1015.40
2022-11-10T02:33:24.964Z,1015.45
2022-11-10T02:34:24.817Z,1015.48
2022-11-10T02:35:24.850Z,1015.46
2022-11-10T02:36:24.890Z,1015.50
2022-11-10T02:37:24.933Z,1015.51
2022-11-10T02:38:25.187Z,1015.48
2022-11-10T02:39:25.032Z,1015.51
2022-11-10T02:40:25.003Z,1015.48
2022-11-10T02:41:25.027Z,1015.43
2022-11-10T02:42:25.056Z,1015.48
2022-11-10T02:43:25.358Z,1015.49
2022-11-10T02:44:25.117Z,1015.52
2022-11-10T02:45:25.446Z,1015.53
2022-11-10T02:46:25.180Z,1015.52
2022-11-10T02:47:25.206Z,1015.51
2022-11-10T02:48:25.341Z,1015.53
2022-11-10T02:49:25.265Z,1015.51
2022-11-10T02:50:25.296Z,1015.50
2022-11-10T02:51:25.575Z,1015.49
2022-11-10T02:52:25.356Z,1015.50
2022-11-10T02:53:25.537Z,1015.52
2022-11-10T02:54:25.423Z,1015.53
2022-11-10T02:55:25.491Z,1015.55
2022-11-10T02:56:25.570Z,1015.47
2022-11-10T02:57:26.023Z,1015.49
2022-11-10T02:58:25.737Z,1015.45
2022-11-10T02:59:25.560Z,1015.46
2022-11-10T03:00:25.593Z,1015.47
2022-11-10T03:01:25.674Z,1015.46
2022-11-10T03:02:29.811Z,1015.49
2022-11-10T03:03:25.983Z,1015.52
2022-11-10T03:04:25.765Z,1015.56
2022-11-10T03:05:25.740Z,1015.60
2022-11-10T03:06:25.771Z,1015.62
2022-11-10T03:07:25.802Z,1015.68
2022-11-10T03:08:25.842Z,1015.70
2022-11-10T03:09:25.884Z,1015.76
2022-11-10T03:11:31.852Z,1015.82
2022-11-10T03:12:25.952Z,1015.85
2022-11-10T03:13:32.270Z,1015.87
2022-11-10T03:14:26.007Z,1015.86
2022-11-10T03:15:26.046Z,1015.91
2022-11-10T03:16:26.069Z,1015.88
2022-11-10T03:17:26.402Z,1016.00
2022-11-10T03:18:26.130Z,1015.99
2022-11-10T03:19:26.158Z,1015.96
2022-11-10T03:20:26.288Z,1015.95
2022-11-10T03:21:26.220Z,1015.92
2022-11-10T03:22:26.251Z,1015.91
2022-11-10T03:23:26.297Z,1015.97
2022-11-10T03:24:26.612Z,1015.99
2022-11-10T03:25:26.357Z,1015.97
2022-11-10T03:26:26.367Z,1016.01
2022-11-10T03:27:26.406Z,1016.04
2022-11-10T03:28:26.479Z,1015.98
2022-11-10T03:29:26.481Z,1016.00
2022-11-10T03:31:26.822Z,1015.94
2022-11-10T03:32:26.550Z,1016.01
2022-11-10T03:33:26.575Z,1015.95
2022-11-10T03:34:31.552Z,1015.96
2022-11-10T03:35:26.636Z,1015.90
2022-11-10T03:36:26.669Z,1015.88
2022-11-10T03:37:26.694Z,1015.88
2022-11-10T03:38:26.976Z,1015.90
2022-11-10T03:39:26.753Z,1015.91
2022-11-10T03:40:26.789Z,1015.94
2022-11-10T03:41:26.838Z,1015.97
2022-11-10T03:42:26.848Z,1016.00
2022-11-10T03:43:26.876Z,1016.04
2022-11-10T03:44:26.902Z,1016.04
2022-11-10T03:45:27.234Z,1016.05
2022-11-10T03:46:26.962Z,1016.12
2022-11-10T03:47:26.992Z,1016.15
2022-11-10T03:48:27.020Z,1016.12
2022-11-10T03:49:27.057Z,1016.13
2022-11-10T03:50:27.083Z,1016.12
2022-11-10T03:51:27.117Z,1016.13
2022-11-10T03:52:27.441Z,1016.10
2022-11-10T03:53:27.172Z,1016.08
2022-11-10T03:54:27.204Z,1016.05
2022-11-10T03:55:27.326Z,1016.07
2022-11-10T03:56:27.261Z,1016.08
2022-11-10T03:57:27.308Z,1016.14
2022-11-10T03:58:27.320Z,1016.19
2022-11-10T03:59:27.601Z,1016.25
2022-11-10T04:00:27.381Z,1016.30
2022-11-10T04:01:27.441Z,1016.25
2022-11-10T04:02:27.545Z,1016.29
2022-11-10T04:03:27.482Z,1016.28
2022-11-10T04:04:27.508Z,1016.26
2022-11-10T04:05:27.529Z,1016.29
2022-11-10T04:06:27.810Z,1016.27
2022-11-10T04:08:27.637Z,1016.28
2022-11-10T04:09:27.650Z,1016.30
2022-11-10T04:11:27.704Z,1016.31
2022-11-10T04:12:27.738Z,1016.36
2022-11-10T04:13:28.088Z,1016.39
2022-11-10T04:14:27.795Z,1016.44
2022-11-10T04:15:27.826Z,1016.44
2022-11-10T04:16:27.855Z,1016.46
2022-11-10T04:17:27.985Z,1016.53
2022-11-10T04:18:27.925Z,1016.57
2022-11-10T04:19:27.945Z,1016.55
2022-11-10T04:20:28.229Z,1016.56
2022-11-10T04:23:28.062Z,1016.59
2022-11-10T04:24:28.199Z,1016.59
2022-11-10T04:26:28.581Z,1016.63
2022-11-10T04:27:28.196Z,1016.66
2022-11-10T04:28:28.212Z,1016.68
2022-11-10T04:29:28.266Z,1016.72
2022-11-10T04:30:28.275Z,1016.72
2022-11-10T04:31:28.302Z,1016.75
2022-11-10T04:32:28.635Z,1016.73
2022-11-10T04:33:28.372Z,1016.75
2022-11-10T04:34:28.414Z,1016.78
2022-11-10T04:35:28.420Z,1016.76
2022-11-10T04:36:28.454Z,1016.82
2022-11-10T04:37:28.485Z,1016.83
2022-11-10T04:38:28.765Z,1016.83
2022-11-10T04:39:28.542Z,1016.82
2022-11-10T04:40:28.566Z,1016.83
2022-11-10T04:41:28.600Z,1016.78
2022-11-10T04:42:28.640Z,1016.79
2022-11-10T04:43:28.659Z,1016.76
2022-11-10T04:44:28.995Z,1016.74
2022-11-10T04:45:28.767Z,1016.77
2022-11-10T04:46:28.749Z,1016.81
2022-11-10T04:47:28.777Z,1016.85
2022-11-10T04:48:28.808Z,1016.84
2022-11-10T04:49:28.841Z,1016.88
2022-11-10T04:50:28.865Z,1016.90
2022-11-10T04:51:29.330Z,1016.91
2022-11-10T04:52:28.930Z,1016.94
2022-11-10T04:53:28.958Z,1016.93
2022-11-10T04:55:29.016Z,1016.96
2022-11-10T04:56:29.049Z,1017.00
2022-11-10T04:57:29.074Z,1016.97
2022-11-10T04:58:29.408Z,1016.96
2022-11-10T04:59:29.139Z,1016.99
2022-11-10T05:00:29.196Z,1017.02
2022-11-10T05:01:29.219Z,1017.02
2022-11-10T05:02:29.226Z,1017.07
2022-11-10T05:03:29.255Z,1017.10
2022-11-10T05:04:29.334Z,1017.10
2022-11-10T05:05:29.565Z,1017.15
2022-11-10T05:06:29.423Z,1017.17
2022-11-10T05:07:29.376Z,1017.20
2022-11-10T05:08:29.411Z,1017.24
2022-11-10T05:09:29.433Z,1017.23
2022-11-10T05:10:29.489Z,1017.26
2022-11-10T05:11:29.500Z,1017.26
2022-11-10T05:12:29.821Z,1017.27
2022-11-10T05:13:29.613Z,1017.28
2022-11-10T05:14:29.584Z,1017.28
2022-11-10T05:15:29.612Z,1017.29
2022-11-10T05:16:29.645Z,1017.30
2022-11-10T05:17:29.690Z,1017.33
2022-11-10T05:18:29.704Z,1017.32
2022-11-10T05:19:29.978Z,1017.34
2022-11-10T05:20:29.757Z,1017.40
2022-11-10T05:21:29.790Z,1017.44
2022-11-10T05:22:29.821Z,1017.44
2022-11-10T05:23:29.849Z,1017.49
2022-11-10T05:24:29.885Z,1017.48
2022-11-10T05:25:29.914Z,1017.50
2022-11-10T05:26:30.241Z,1017.56
2022-11-10T05:27:29.976Z,1017.52
2022-11-10T05:28:29.996Z,1017.58
2022-11-10T05:29:30.031Z,1017.59
2022-11-10T05:30:30.099Z,1017.60
2022-11-10T05:31:30.085Z,1017.58
2022-11-10T05:32:30.120Z,1017.58
2022-11-10T05:33:30.531Z,1017.57
2022-11-10T05:34:30.178Z,1017.56
2022-11-10T05:36:30.247Z,1017.54
2022-11-10T05:37:30.264Z,1017.55
2022-11-10T05:38:30.393Z,1017.67
2022-11-10T05:40:30.759Z,1017.68
2022-11-10T05:41:30.384Z,1017.69
2022-11-10T05:42:30.411Z,1017.78
2022-11-10T05:43:30.442Z,1017.81
2022-11-10T05:44:30.476Z,1017.80
2022-11-10T05:45:30.498Z,1017.78
2022-11-10T05:46:30.534Z,1017.81
2022-11-10T05:47:33.433Z,1017.81
2022-11-10T05:48:30.594Z,1017.79
2022-11-10T05:49:30.649Z,1017.81
2022-11-10T05:52:30.710Z,1017.84
2022-11-10T05:53:30.741Z,1017.84
2022-11-10T05:54:31.072Z,1017.89
2022-11-10T05:56:30.828Z,1017.89
2022-11-10T05:57:30.866Z,1017.91
2022-11-10T05:58:30.891Z,1017.89
2022-11-10T05:59:30.921Z,1017.92
2022-11-10T06:00:31.200Z,1017.96
2022-11-10T06:01:31.081Z,1017.92
2022-11-10T06:02:31.003Z,1017.98
2022-11-10T06:03:31.112Z,1017.97
2022-11-10T06:04:31.065Z,1017.97
2022-11-10T06:05:31.680Z,1017.96
2022-11-10T06:06:31.454Z,1017.99
2022-11-10T06:07:31.155Z,1017.99
2022-11-10T06:08:31.189Z,1018.05
2022-11-10T06:09:31.213Z,1018.05
2022-11-10T06:10:31.244Z,1018.09
2022-11-10T06:11:31.272Z,1018.06
2022-11-10T06:12:31.603Z,1018.12
2022-11-10T06:13:31.335Z,1018.13
2022-11-10T06:14:31.366Z,1018.15
2022-11-10T06:15:31.394Z,1018.15
2022-11-10T06:16:31.424Z,1018.15
2022-11-10T06:17:31.452Z,1018.16
2022-11-10T06:18:31.482Z,1018.18
2022-11-10T06:19:31.510Z,1018.17
2022-11-10T06:20:31.565Z,1018.21
2022-11-10T06:21:31.591Z,1018.22
2022-11-10T06:22:31.602Z,1018.22
2022-11-10T06:23:31.629Z,1018.26
2022-11-10T06:24:31.667Z,1018.23
2022-11-10T06:25:31.941Z,1018.21
2022-11-10T06:26:31.719Z,1018.22
2022-11-10T06:27:31.749Z,1018.24
2022-11-10T06:28:31.806Z,1018.25
2022-11-10T06:29:31.809Z,1018.25
2022-11-10T06:30:31.838Z,1018.25
2022-11-10T06:31:31.874Z,1018.29
2022-11-10T06:32:32.200Z,1018.35
2022-11-10T06:33:31.927Z,1018.29
2022-11-10T06:34:31.959Z,1018.33
2022-11-10T06:35:31.992Z,1018.33
2022-11-10T06:36:32.017Z,1018.32
2022-11-10T06:37:32.069Z,1018.32
2022-11-10T06:38:32.079Z,1018.34
2022-11-10T06:40:32.385Z,1018.40
2022-11-10T06:41:32.164Z,1018.37
2022-11-10T06:42:32.195Z,1018.41
2022-11-10T06:43:32.222Z,1018.44
2022-11-10T06:44:32.256Z,1018.43
2022-11-10T06:45:32.297Z,1018.44
2022-11-10T06:46:32.317Z,1018.48
2022-11-10T06:47:32.654Z,1018.49
2022-11-10T06:48:32.372Z,1018.53
2022-11-10T06:49:32.529Z,1018.58
2022-11-10T06:50:32.433Z,1018.61
2022-11-10T06:51:32.469Z,1018.59
2022-11-10T06:52:32.494Z,1018.58
2022-11-10T06:53:33.030Z,1018.67
2022-11-10T06:54:32.853Z,1018.67
2022-11-10T06:55:32.588Z,1018.66
2022-11-10T06:56:32.610Z,1018.74
2022-11-10T06:57:32.659Z,1018.73
2022-11-10T06:58:32.669Z,1018.75
2022-11-10T06:59:32.703Z,1018.77
2022-11-10T07:00:32.728Z,1018.73
2022-11-10T07:01:33.078Z,1018.83
2022-11-10T07:02:32.786Z,1018.84
2022-11-10T07:03:32.821Z,1018.86
2022-11-10T07:04:32.846Z,1018.90
2022-11-10T07:05:32.884Z,1018.90
2022-11-10T07:06:32.990Z,1018.90
2022-11-10T07:07:32.949Z,1018.95
2022-11-10T07:08:33.266Z,1018.96
2022-11-10T07:09:33.017Z,1018.97
2022-11-10T07:10:33.041Z,1018.98
2022-11-10T07:11:33.058Z,1019.01
2022-11-10T07:13:33.120Z,1019.03
2022-11-10T07:14:33.149Z,1019.09
2022-11-10T07:15:33.430Z,1019.12
2022-11-10T07:16:33.262Z,1019.11
2022-11-10T07:17:33.237Z,1019.09
2022-11-10T07:18:33.370Z,1019.12
2022-11-10T07:19:33.301Z,1019.13
2022-11-10T07:20:33.331Z,1019.15
2022-11-10T07:21:33.363Z,1019.16
2022-11-10T07:22:33.690Z,1019.19
2022-11-10T07:23:33.435Z,1019.23
2022-11-10T07:24:33.451Z,1019.25
2022-11-10T07:25:33.669Z,1019.25
2022-11-10T07:26:33.504Z,1019.27
2022-11-10T07:27:33.636Z,1019.35
2022-11-10T07:28:33.581Z,1019.36
2022-11-10T07:29:33.900Z,1019.38
2022-11-10T07:30:33.625Z,1019.37
2022-11-10T07:31:33.702Z,1019.37
2022-11-10T07:32:33.697Z,1019.39
2022-11-10T07:33:33.715Z,1019.41
2022-11-10T07:34:33.752Z,1019.41
2022-11-10T07:35:33.775Z,1019.43
2022-11-10T07:36:34.103Z,1019.49
2022-11-10T07:37:33.853Z,1019.49
2022-11-10T07:39:34.044Z,1019.54
2022-11-10T07:40:33.927Z,1019.53
2022-11-10T07:41:33.976Z,1019.57
2022-11-10T07:42:33.980Z,1019.61
2022-11-10T07:43:34.312Z,1019.62
2022-11-10T07:44:34.054Z,1019.60
2022-11-10T07:46:34.106Z,1019.63
2022-11-10T07:47:34.142Z,1019.62
2022-11-10T07:48:34.176Z,1019.64
2022-11-10T07:50:34.520Z,1019.61
2022-11-10T07:51:34.604Z,1019.63
2022-11-10T07:52:34.281Z,1019.62
2022-11-10T07:53:34.312Z,1019.62
2022-11-10T07:54:34.334Z,1019.65
2022-11-10T07:55:34.372Z,1019.67
2022-11-10T07:56:34.401Z,1019.72
2022-11-10T07:57:34.447Z,1019.70
2022-11-10T07:58:34.458Z,1019.70
2022-11-10T07:59:34.490Z,1019.72
2022-11-10T08:00:34.521Z,1019.81
2022-11-10T08:01:34.577Z,1019.84
2022-11-10T08:02:34.827Z,1019.83
2022-11-10T08:03:34.611Z,1019.84
2022-11-10T08:04:34.635Z,1019.89
2022-11-10T08:05:34.675Z,1019.92
2022-11-10T08:06:36.275Z,1019.94
2022-11-10T08:07:34.855Z,1019.95
2022-11-10T08:08:35.057Z,1019.96
2022-11-10T08:09:34.791Z,1019.94
2022-11-10T08:10:34.814Z,1019.97
2022-11-10T08:11:34.946Z,1020.01
2022-11-10T08:12:34.880Z,1020.00
2022-11-10T08:13:34.935Z,1020.02
2022-11-10T08:14:34.936Z,1020.05
2022-11-10T08:15:35.266Z,1020.09
2022-11-10T08:16:35.000Z,1020.06
2022-11-10T08:17:35.025Z,1020.12
2022-11-10T08:18:35.829Z,1020.13
2022-11-10T08:19:35.098Z,1020.13
2022-11-10T08:20:35.128Z,1020.18
2022-11-10T08:22:35.482Z,1020.16
2022-11-10T08:24:35.235Z,1020.17
2022-11-10T08:26:35.295Z,1020.19
2022-11-10T08:27:35.327Z,1020.24
2022-11-10T08:28:35.360Z,1020.23
2022-11-10T08:29:35.717Z,1020.28
2022-11-10T08:31:35.446Z,1020.23
2022-11-10T08:32:35.472Z,1020.25
2022-11-10T08:33:35.509Z,1020.28
2022-11-10T08:34:35.532Z,1020.29
2022-11-10T08:35:35.567Z,1020.27
2022-11-10T08:36:35.898Z,1020.26
2022-11-10T08:38:35.654Z,1020.30
2022-11-10T08:39:39.753Z,1020.28
2022-11-10T08:40:35.717Z,1020.38
2022-11-10T08:41:35.747Z,1020.39
2022-11-10T08:42:35.777Z,1020.39
2022-11-10T08:43:36.109Z,1020.38
2022-11-10T08:44:35.945Z,1020.44
2022-11-10T08:45:35.886Z,1020.45
2022-11-10T08:46:35.897Z,1020.50
2022-11-10T08:47:35.927Z,1020.55
2022-11-10T08:49:36.243Z,1020.58
2022-11-10T08:50:36.024Z,1020.61
2022-11-10T08:51:39.039Z,1020.59
2022-11-10T08:52:36.076Z,1020.55
2022-11-10T08:53:36.108Z,1020.50
2022-11-10T08:54:36.130Z,1020.52
2022-11-10T08:55:36.167Z,1020.53
2022-11-10T08:56:36.447Z,1020.53
2022-11-10T08:57:36.261Z,1020.49
2022-11-10T08:58:45.311Z,1020.51
2022-11-10T08:59:36.286Z,1020.57
2022-11-10T09:00:36.315Z,1020.57
2022-11-10T09:01:36.398Z,1020.60
2022-11-10T09:02:36.385Z,1020.62
2022-11-10T09:03:36.712Z,1020.68
2022-11-10T09:04:36.512Z,1020.69
2022-11-10T09:05:36.472Z,1020.70
2022-11-10T09:06:36.616Z,1020.69
2022-11-10T09:07:36.530Z,1020.71
2022-11-10T09:08:36.557Z,1020.67
2022-11-10T09:09:36.589Z,1020.72
2022-11-10T09:10:36.914Z,1020.68
2022-11-10T09:11:36.650Z,1020.67
2022-11-10T09:12:36.677Z,1020.75
2022-11-10T09:13:36.788Z,1020.76
2022-11-10T09:14:36.737Z,1020.78
2022-11-10T09:15:36.769Z,1020.83
2022-11-10T09:17:36.848Z,1020.83
2022-11-10T09:18:36.857Z,1020.81
2022-11-10T09:19:36.976Z,1020.79
2022-11-10T09:20:36.935Z,1020.77
2022-11-10T09:22:37.277Z,1020.77
2022-11-10T09:23:37.013Z,1020.71
2022-11-10T09:24:37.039Z,1020.74
2022-11-10T09:25:37.074Z,1020.79
2022-11-10T09:27:37.129Z,1020.76
2022-11-10T09:28:37.158Z,1020.76
2022-11-10T09:29:37.440Z,1020.77
2022-11-10T09:30:37.217Z,1020.78
2022-11-10T09:31:37.250Z,1020.78
2022-11-10T09:32:37.286Z,1020.78
2022-11-10T09:33:37.329Z,1020.76
2022-11-10T09:34:37.340Z,1020.77
2022-11-10T09:35:37.667Z,1020.78
2022-11-10T09:36:37.405Z,1020.86
2022-11-10T09:37:37.440Z,1020.87
2022-11-10T09:38:37.462Z,1020.86
2022-11-10T09:39:37.491Z,1020.86
2022-11-10T09:40:37.526Z,1020.89
2022-11-10T09:41:37.555Z,1020.82
2022-11-10T09:42:37.890Z,1020.84
2022-11-10T09:43:37.614Z,1020.78
2022-11-10T09:44:37.649Z,1020.77
2022-11-10T09:45:39.295Z,1020.79
2022-11-10T09:46:37.701Z,1020.82
2022-11-10T09:47:58.793Z,1020.91
2022-11-10T09:48:37.762Z,1020.95
2022-11-10T09:49:38.113Z,1020.93
2022-11-10T09:50:37.824Z,1020.92
2022-11-10T09:51:37.854Z,1020.92
2022-11-10T09:52:37.884Z,1020.93
2022-11-10T09:53:37.916Z,1020.94
2022-11-10T09:54:38.059Z,1020.99
2022-11-10T09:56:38.256Z,1021.07
2022-11-10T09:57:38.040Z,1021.03
2022-11-10T09:58:38.068Z,1021.03
2022-11-10T09:59:38.097Z,1021.04
2022-11-10T10:00:38.129Z,1021.08
2022-11-10T10:01:38.229Z,1021.05
2022-11-10T10:02:38.263Z,1021.06
2022-11-10T10:03:38.215Z,1021.01
2022-11-10T10:04:38.372Z,1021.08
2022-11-10T10:05:38.297Z,1021.06
2022-11-10T10:07:04.739Z,1021.09
2022-11-10T10:07:38.386Z,1021.09
2022-11-10T10:08:38.384Z,1021.09
2022-11-10T10:09:38.654Z,1021.06
2022-11-10T10:10:38.430Z,1021.07
2022-11-10T10:11:38.472Z,1021.11
2022-11-10T10:12:38.490Z,1021.11
2022-11-10T10:13:38.521Z,1021.14
2022-11-10T10:14:38.551Z,1021.14
2022-11-10T10:15:38.581Z,1021.15
2022-11-10T10:16:38.861Z,1021.14
2022-11-10T10:17:41.337Z,1021.12
2022-11-10T10:18:38.671Z,1021.13
2022-11-10T10:19:38.709Z,1021.15
2022-11-10T10:21:38.781Z,1021.17
2022-11-10T10:22:38.842Z,1021.14
2022-11-10T10:24:08.057Z,1021.15
2022-11-10T10:24:38.857Z,1021.14
2022-11-10T10:25:38.902Z,1021.15
2022-11-10T10:26:38.923Z,1021.18
2022-11-10T10:27:38.945Z,1021.17
2022-11-10T10:29:39.268Z,1021.18
2022-11-10T10:31:39.069Z,1021.16
2022-11-10T10:32:39.107Z,1021.18
2022-11-10T10:33:39.177Z,1021.20
2022-11-10T10:34:39.160Z,1021.26
2022-11-10T10:35:41.915Z,1021.24
2022-11-10T10:36:39.220Z,1021.23
2022-11-10T10:37:39.293Z,1021.20
2022-11-10T10:39:39.310Z,1021.25
2022-11-10T10:40:39.343Z,1021.26
2022-11-10T10:41:39.671Z,1021.26
2022-11-10T10:42:39.401Z,1021.28
2022-11-10T10:43:39.431Z,1021.24
2022-11-10T10:44:39.461Z,1021.26
2022-11-10T10:45:39.561Z,1021.27
2022-11-10T10:46:39.522Z,1021.20
2022-11-10T10:47:39.553Z,1021.20
2022-11-10T10:48:39.837Z,1021.21
2022-11-10T10:49:39.796Z,1021.18
2022-11-10T10:50:39.849Z,1021.17
2022-11-10T10:51:39.935Z,1021.15
2022-11-10T10:52:39.813Z,1021.14
2022-11-10T10:53:39.919Z,1021.11
2022-11-10T10:54:39.915Z,1021.14
2022-11-10T10:55:40.097Z,1021.09
2022-11-10T10:56:39.979Z,1021.15
2022-11-10T10:58:39.975Z,1021.16
2022-11-10T10:59:40.070Z,1021.15
2022-11-10T11:00:40.101Z,1021.18
2022-11-10T11:01:40.033Z,1021.17
2022-11-10T11:02:40.255Z,1021.14
2022-11-10T11:03:40.048Z,1021.18
2022-11-10T11:04:40.080Z,1021.17
2022-11-10T11:05:40.103Z,1021.19
2022-11-10T11:06:40.178Z,1021.16
2022-11-10T11:07:40.178Z,1021.16
2022-11-10T11:08:40.291Z,1021.16
2022-11-10T11:09:40.504Z,1021.18
2022-11-10T11:10:40.256Z,1021.15
2022-11-10T11:11:40.285Z,1021.11
2022-11-10T11:12:40.314Z,1021.13
2022-11-10T11:13:40.354Z,1021.14
2022-11-10T11:14:45.609Z,1021.21
2022-11-10T11:15:40.407Z,1021.22
2022-11-10T11:16:40.687Z,1021.21
2022-11-10T11:19:40.527Z,1021.30
2022-11-10T11:20:40.560Z,1021.24
2022-11-10T11:21:40.591Z,1021.30
2022-11-10T11:22:40.631Z,1021.36
2022-11-10T11:23:40.953Z,1021.32
2022-11-10T11:24:40.680Z,1021.39
2022-11-10T11:25:40.740Z,1021.44
2022-11-10T11:26:40.746Z,1021.44
2022-11-10T11:27:40.771Z,1021.47
2022-11-10T11:28:40.909Z,1021.50
2022-11-10T11:29:40.848Z,1021.54
2022-11-10T11:30:41.116Z,1021.56
2022-11-10T11:31:43.238Z,1021.55
2022-11-10T11:32:40.928Z,1021.56
2022-11-10T11:33:40.959Z,1021.55
2022-11-10T11:34:40.996Z,1021.58
2022-11-10T11:35:41.022Z,1021.58
2022-11-10T11:36:41.049Z,1021.56
2022-11-10T11:37:41.345Z,1021.65
2022-11-10T11:38:41.164Z,1021.60
2022-11-10T11:39:41.141Z,1021.59
2022-11-10T11:40:41.263Z,1021.60
2022-11-10T11:41:41.340Z,1021.59
2022-11-10T11:42:57.593Z,1021.63
2022-11-10T11:43:41.268Z,1021.59
2022-11-10T11:44:41.291Z,1021.60
2022-11-10T11:45:41.482Z,1021.64
2022-11-10T11:46:44.982Z,1021.64
2022-11-10T11:47:41.480Z,1021.61
2022-11-10T11:48:41.519Z,1021.65
2022-11-10T11:49:41.861Z,1021.73
2022-11-10T11:50:41.500Z,1021.74
2022-11-10T11:51:41.662Z,1021.76
2022-11-10T11:54:41.599Z,1021.81
2022-11-10T11:55:41.626Z,1021.85
2022-11-10T11:56:42.777Z,1021.84
2022-11-10T11:57:42.341Z,1021.84
2022-11-10T11:59:42.354Z,1021.78
2022-11-10T12:00:42.227Z,1021.79
2022-11-10T12:01:41.815Z,1021.78
2022-11-10T12:02:42.212Z,1021.78
2022-11-10T12:03:41.871Z,1021.82
2022-11-10T12:04:41.906Z,1021.80
2022-11-10T12:05:41.933Z,1021.89
2022-11-10T12:06:42.025Z,1021.90
2022-11-10T12:07:41.995Z,1021.94
2022-11-10T12:08:42.281Z,1021.93
2022-11-10T12:09:42.055Z,1021.88
2022-11-10T12:10:43.416Z,1021.93
2022-11-10T12:11:42.113Z,1021.95
2022-11-10T12:12:42.149Z,1021.92
2022-11-10T12:13:42.403Z,1021.91
2022-11-10T12:14:42.218Z,1021.90
2022-11-10T12:15:42.489Z,1021.89
2022-11-10T12:17:42.405Z,1021.91
2022-11-10T12:18:47.101Z,1021.95
2022-11-10T12:19:42.616Z,1021.96
2022-11-10T12:20:42.398Z,1021.90
2022-11-10T12:21:42.424Z,1021.91
2022-11-10T12:22:42.762Z,1021.94
2022-11-10T12:23:42.487Z,1021.93
2022-11-10T12:24:42.520Z,1021.96
2022-11-10T12:25:42.564Z,1021.94
2022-11-10T12:26:42.582Z,1021.95
2022-11-10T12:27:42.607Z,1021.98
2022-11-10T12:28:42.649Z,1021.88
2022-11-10T12:29:42.992Z,1021.91
2022-11-10T12:30:42.698Z,1021.97
2022-11-10T12:31:42.730Z,1021.94
2022-11-10T12:33:42.795Z,1021.92
2022-11-10T12:34:42.824Z,1021.92
2022-11-10T12:35:42.856Z,1021.88
2022-11-10T12:36:43.142Z,1021.90
2022-11-10T12:37:42.914Z,1021.86
2022-11-10T12:38:43.700Z,1021.88
2022-11-10T12:39:42.988Z,1021.92
2022-11-10T12:40:43.008Z,1021.93
2022-11-10T12:41:43.043Z,1021.95
2022-11-10T12:42:43.072Z,1021.94
2022-11-10T12:43:43.350Z,1021.93
2022-11-10T12:45:43.187Z,1021.88
2022-11-10T12:46:45.930Z,1021.87
2022-11-10T12:47:43.224Z,1021.85
2022-11-10T12:48:43.250Z,1021.82
2022-11-10T12:49:43.281Z,1021.77
2022-11-10T12:50:43.642Z,1021.86
2022-11-10T12:51:43.393Z,1021.90